Time;durP1;ratioP1;P1;durP2;ratioP2;P2;SDS_P1;SDS_P2;PMS_P1;PMS_P2;Temp;Humidity;BMP_temperature;BMP_pressure;BME280_temperature;BME280_humidity;BME280_pressure;Samples;Min_cycle;Max_cycle;Signal;HPM_P1;HPM_P2
2022/05/02 00:00:11;;;;;;;9.43;5.72;;;9.40;99.90;;;;;;5053632;28;20053;-55
2022/05/02 00:02:37;;;;;;;11.60;5.50;;;9.50;99.90;;;;;;5053817;28;20029;-54
2022/05/02 00:05:04;;;;;;;10.90;6.05;;;9.50;99.90;;;;;;5036621;28;20025;-52
2022/05/02 00:07:30;;;;;;;9.35;5.57;;;9.50;99.90;;;;;;5035819;28;20025;-52
2022/05/02 00:09:56;;;;;;;11.68;5.70;;;9.50;99.90;;;;;;5053687;28;20032;-54
2022/05/02 00:12:22;;;;;;;10.48;5.88;;;9.50;99.90;;;;;;5035631;28;20025;-56
2022/05/02 00:14:47;;;;;;;10.23;6.15;;;9.50;99.90;;;;;;5053484;28;20025;-53
2022/05/02 00:17:13;;;;;;;9.10;5.70;;;9.50;99.90;;;;;;5052010;28;20044;-54
2022/05/02 00:19:39;;;;;;;9.05;5.40;;;9.50;99.90;;;;;;5052829;28;20049;-56
2022/05/02 00:22:04;;;;;;;8.95;5.75;;;9.50;99.90;;;;;;5052457;28;20481;-55
2022/05/02 00:24:30;;;;;;;8.10;5.30;;;9.40;99.90;;;;;;5052797;28;20021;-55
2022/05/02 00:26:57;;;;;;;9.68;5.80;;;9.40;99.90;;;;;;5035158;28;20448;-56
2022/05/02 00:29:22;;;;;;;10.48;6.32;;;9.30;99.90;;;;;;5053072;28;20045;-56
2022/05/02 00:31:48;;;;;;;7.65;5.30;;;9.40;99.90;;;;;;5052223;28;20434;-53
2022/05/02 00:34:14;;;;;;;8.60;5.45;;;9.40;99.90;;;;;;5053345;28;20029;-56
2022/05/02 00:36:40;;;;;;;7.43;5.18;;;9.30;99.90;;;;;;5053606;28;20021;-57
2022/05/02 00:39:06;;;;;;;7.55;5.80;;;9.40;99.90;;;;;;5051476;28;20044;-56
2022/05/02 00:41:32;;;;;;;13.70;5.43;;;9.40;99.90;;;;;;5053158;28;20028;-56
2022/05/02 00:43:58;;;;;;;8.15;5.55;;;9.40;99.90;;;;;;5051136;28;20088;-55
2022/05/02 00:46:25;;;;;;;8.68;5.50;;;9.40;99.90;;;;;;5052328;28;20032;-56
2022/05/02 00:48:52;;;;;;;6.68;5.15;;;9.50;99.90;;;;;;5052418;28;20021;-55
2022/05/02 00:51:18;;;;;;;9.57;5.47;;;9.50;99.90;;;;;;5049398;28;20397;-57
2022/05/02 00:53:49;;;;;;;7.63;5.50;;;9.40;99.90;;;;;;5050188;28;20087;-55
2022/05/02 00:56:22;;;;;;;10.75;5.95;;;9.40;99.90;;;;;;5052532;28;20013;-54
2022/05/02 00:58:53;;;;;;;7.70;5.20;;;9.50;99.90;;;;;;5050989;28;20447;-57
2022/05/02 01:01:20;;;;;;;7.90;5.20;;;9.50;99.90;;;;;;5052473;28;20021;-55
2022/05/02 01:03:45;;;;;;;8.65;5.05;;;9.60;99.90;;;;;;5053003;28;20017;-56
2022/05/02 01:08:55;;;;;;;8.85;5.38;;;9.50;99.90;;;;;;5052360;28;20079;-55
2022/05/02 01:11:21;;;;;;;8.88;5.70;;;9.50;99.90;;;;;;5052831;28;20084;-55
2022/05/02 01:13:48;;;;;;;10.82;5.57;;;9.50;99.90;;;;;;5052674;28;20505;-54
2022/05/02 01:16:15;;;;;;;8.82;5.40;;;9.50;99.90;;;;;;5052836;28;20024;-55
2022/05/02 01:18:43;;;;;;;7.90;5.53;;;9.50;99.90;;;;;;5052542;28;20024;-56
2022/05/02 01:21:14;;;;;;;7.97;5.32;;;9.50;99.90;;;;;;5052248;28;20103;-55
2022/05/02 01:23:41;;;;;;;10.15;6.38;;;9.50;99.90;;;;;;5052526;28;20025;-56
2022/05/02 01:26:07;;;;;;;7.72;5.82;;;9.50;99.90;;;;;;5052687;28;20482;-54
2022/05/02 01:28:39;;;;;;;13.00;5.18;;;9.40;99.90;;;;;;5051341;28;20040;-56
2022/05/02 01:31:04;;;;;;;7.75;5.40;;;9.40;99.90;;;;;;5050655;28;20044;-56
2022/05/02 01:33:30;;;;;;;8.80;5.90;;;9.40;99.90;;;;;;5052723;28;20516;-57
2022/05/02 01:35:56;;;;;;;9.65;5.53;;;9.40;99.90;;;;;;5052984;28;20504;-55
2022/05/02 01:38:22;;;;;;;11.30;6.07;;;9.30;99.90;;;;;;5052994;28;20367;-55
2022/05/02 01:40:48;;;;;;;11.98;6.28;;;9.40;99.90;;;;;;5034767;28;20078;-55
2022/05/02 01:43:13;;;;;;;10.20;6.35;;;9.40;99.90;;;;;;5044322;22;20041;-74
2022/05/02 01:45:39;;;;;;;9.68;6.30;;;9.40;99.90;;;;;;5059112;28;20025;-75
2022/05/02 01:48:05;;;;;;;10.90;5.85;;;9.40;99.90;;;;;;5059232;28;20028;-74
2022/05/02 01:50:30;;;;;;;9.52;5.97;;;9.40;99.90;;;;;;5060232;28;20028;-75
2022/05/02 01:52:56;;;;;;;10.10;6.10;;;9.40;99.90;;;;;;5061381;28;20037;-75
2022/05/02 01:55:21;;;;;;;10.63;5.82;;;9.40;99.90;;;;;;5061134;28;20040;-75
2022/05/02 01:57:47;;;;;;;10.77;6.63;;;9.20;99.90;;;;;;5085119;22;20086;-70
2022/05/02 02:00:13;;;;;;;12.23;6.43;;;9.20;99.90;;;;;;5066739;28;20017;-70
2022/05/02 02:02:39;;;;;;;11.48;6.93;;;9.20;99.90;;;;;;5065544;28;20050;-70
2022/05/02 02:07:48;;;;;;;9.82;6.68;;;9.20;99.90;;;;;;5063730;28;20082;-70
2022/05/02 02:10:14;;;;;;;10.10;7.25;;;9.20;99.90;;;;;;5047580;28;20017;-70
2022/05/02 02:12:40;;;;;;;11.85;6.80;;;9.20;99.90;;;;;;5046428;28;20029;-70
2022/05/02 02:15:06;;;;;;;9.30;6.65;;;9.20;99.90;;;;;;5050956;28;20431;-70
2022/05/02 02:17:31;;;;;;;11.95;6.22;;;9.20;99.90;;;;;;5066876;28;20024;-70
2022/05/02 02:19:57;;;;;;;10.85;7.05;;;9.10;99.90;;;;;;5054450;28;20114;-70
2022/05/02 02:22:23;;;;;;;10.40;6.43;;;9.00;99.90;;;;;;5038378;28;20102;-70
2022/05/02 02:24:49;;;;;;;11.82;7.10;;;9.00;99.90;;;;;;5056814;28;20029;-70
2022/05/02 02:27:15;;;;;;;12.32;6.88;;;9.00;99.90;;;;;;5057077;28;20091;-70
2022/05/02 02:29:41;;;;;;;11.25;6.75;;;9.00;99.90;;;;;;5057004;28;20045;-70
2022/05/02 02:32:07;;;;;;;11.23;6.15;;;9.00;99.90;;;;;;5057211;28;20032;-70
2022/05/02 02:34:33;;;;;;;9.68;6.28;;;9.00;99.90;;;;;;5056640;28;20025;-71
2022/05/02 02:37:00;;;;;;;11.73;6.78;;;9.00;99.90;;;;;;5056397;28;20219;-70
2022/05/02 02:39:25;;;;;;;12.40;6.78;;;9.00;99.90;;;;;;5056349;28;20017;-70
2022/05/02 02:41:51;;;;;;;11.13;7.72;;;9.00;99.90;;;;;;5056562;28;20032;-70
2022/05/02 02:44:16;;;;;;;12.23;6.72;;;9.00;99.90;;;;;;5041688;28;20025;-71
2022/05/02 02:46:42;;;;;;;8.02;6.95;;;9.00;99.90;;;;;;5066009;28;20037;-71
2022/05/02 02:49:07;;;;;;;9.98;6.80;;;9.00;99.90;;;;;;5059998;28;20052;-71
2022/05/02 02:51:33;;;;;;;12.77;7.20;;;9.00;99.90;;;;;;5037925;28;20474;-71
2022/05/02 02:53:58;;;;;;;9.65;6.47;;;9.00;99.90;;;;;;5055560;28;20051;-71
2022/05/02 02:56:24;;;;;;;11.60;6.30;;;9.10;99.90;;;;;;5055546;28;20076;-71
2022/05/02 02:58:49;;;;;;;12.80;7.25;;;9.20;99.90;;;;;;5055598;28;20037;-71
2022/05/02 03:01:15;;;;;;;16.90;7.65;;;9.20;99.90;;;;;;5055571;28;20423;-72
2022/05/02 03:03:40;;;;;;;10.32;6.72;;;9.10;99.90;;;;;;5055467;28;20470;-71
2022/05/02 03:06:06;;;;;;;8.73;6.78;;;9.10;99.90;;;;;;5055742;28;20103;-71
2022/05/02 03:08:37;;;;;;;12.90;7.38;;;9.00;99.90;;;;;;5055365;28;20076;-71
2022/05/02 03:11:03;;;;;;;11.88;7.15;;;8.90;99.90;;;;;;5054589;28;20086;-71
2022/05/02 03:13:29;;;;;;;18.48;7.75;;;8.90;99.90;;;;;;5033901;28;20033;-71
2022/05/02 03:15:55;;;;;;;17.45;7.63;;;8.80;99.90;;;;;;5035176;28;20452;-71
2022/05/02 03:18:21;;;;;;;11.75;7.85;;;8.80;99.90;;;;;;5035477;28;20079;-71
2022/05/02 03:20:47;;;;;;;13.32;7.68;;;8.80;99.90;;;;;;5035575;28;20029;-71
2022/05/02 03:23:13;;;;;;;11.63;7.45;;;8.80;99.90;;;;;;5035332;28;20021;-71
2022/05/02 03:25:38;;;;;;;18.23;8.23;;;8.70;99.90;;;;;;5035163;28;20025;-72
2022/05/02 03:28:04;;;;;;;10.05;7.13;;;8.70;99.90;;;;;;5048393;28;20033;-70
2022/05/02 03:30:30;;;;;;;10.73;7.30;;;8.70;99.90;;;;;;5037429;28;20071;-70
2022/05/02 03:32:55;;;;;;;12.68;7.00;;;8.60;99.90;;;;;;5064432;28;20025;-70
2022/05/02 03:35:21;;;;;;;14.90;8.00;;;8.60;99.90;;;;;;5044651;28;20028;-70
2022/05/02 03:37:46;;;;;;;12.13;7.85;;;8.50;99.90;;;;;;5054852;28;20025;-70
2022/05/02 03:40:12;;;;;;;13.98;8.40;;;8.40;99.90;;;;;;5055071;28;20100;-70
2022/05/02 03:42:38;;;;;;;10.95;7.95;;;8.40;99.90;;;;;;5034418;28;20098;-70
2022/05/02 03:45:07;;;;;;;14.05;8.73;;;8.30;99.90;;;;;;5034947;28;20036;-69
2022/05/02 03:47:33;;;;;;;11.95;7.75;;;8.30;99.90;;;;;;5035067;28;20026;-68
2022/05/02 03:49:58;;;;;;;13.80;8.40;;;8.40;99.90;;;;;;5035361;28;20032;-68
2022/05/02 03:52:24;;;;;;;14.10;8.43;;;8.30;99.90;;;;;;5035274;28;20037;-69
2022/05/02 03:54:49;;;;;;;14.35;8.02;;;8.20;99.90;;;;;;5034292;28;20418;-69
2022/05/02 03:57:15;;;;;;;14.85;8.35;;;8.20;99.90;;;;;;5034615;28;20122;-69
2022/05/02 03:59:41;;;;;;;18.25;7.80;;;8.30;99.90;;;;;;5034445;28;20029;-69
2022/05/02 04:02:06;;;;;;;14.43;7.80;;;8.30;99.90;;;;;;5033001;28;20036;-70
2022/05/02 04:04:32;;;;;;;11.70;7.93;;;8.30;99.90;;;;;;5041135;28;20497;-70
2022/05/02 04:06:57;;;;;;;13.15;8.52;;;8.30;99.90;;;;;;5045380;28;20040;-69
2022/05/02 04:09:23;;;;;;;13.48;8.57;;;8.30;99.90;;;;;;5035905;28;20017;-69
2022/05/02 04:11:49;;;;;;;14.00;8.68;;;8.30;99.90;;;;;;5053836;28;20029;-69
2022/05/02 04:14:14;;;;;;;13.65;8.52;;;8.20;99.90;;;;;;5035599;28;20021;-69
2022/05/02 04:16:40;;;;;;;12.32;7.88;;;8.20;99.90;;;;;;5055660;28;20390;-69
2022/05/02 04:19:06;;;;;;;11.30;8.15;;;8.20;99.90;;;;;;5064929;28;20028;-69
2022/05/02 04:21:31;;;;;;;14.55;8.48;;;8.10;99.90;;;;;;5056502;28;20029;-70
2022/05/02 04:23:57;;;;;;;12.30;8.20;;;8.10;99.90;;;;;;5036872;28;20029;-70
2022/05/02 04:26:23;;;;;;;11.30;8.05;;;8.10;99.90;;;;;;5053790;28;20067;-70
2022/05/02 04:28:49;;;;;;;13.05;8.43;;;8.00;99.90;;;;;;5053850;28;20106;-70
2022/05/02 04:31:15;;;;;;;11.75;8.45;;;8.00;99.90;;;;;;5053830;28;20025;-70
2022/05/02 04:33:40;;;;;;;11.57;8.40;;;8.00;99.90;;;;;;5053815;28;20041;-71
2022/05/02 04:36:06;;;;;;;13.57;8.77;;;8.00;99.90;;;;;;5053784;28;20043;-71
2022/05/02 04:38:32;;;;;;;16.95;9.40;;;7.90;99.90;;;;;;5053892;28;20020;-72
2022/05/02 04:40:57;;;;;;;11.65;8.25;;;7.90;99.90;;;;;;5053518;28;20021;-71
2022/05/02 04:43:24;;;;;;;18.50;9.23;;;7.90;99.90;;;;;;5053730;28;20029;-71
2022/05/02 04:45:50;;;;;;;18.50;10.35;;;7.90;99.90;;;;;;5053322;28;20021;-71
2022/05/02 04:48:15;;;;;;;18.45;8.55;;;7.90;99.90;;;;;;5044072;28;20033;-71
2022/05/02 04:50:41;;;;;;;15.45;9.65;;;8.00;99.90;;;;;;5015520;28;20025;-71
2022/05/02 04:53:07;;;;;;;11.20;8.10;;;7.90;99.90;;;;;;5045845;28;20029;-71
2022/05/02 04:55:32;;;;;;;15.63;9.65;;;7.90;99.90;;;;;;5053869;28;20470;-71
2022/05/02 04:57:58;;;;;;;11.88;8.70;;;8.00;99.90;;;;;;5054207;28;20386;-70
2022/05/02 05:00:24;;;;;;;16.13;9.40;;;8.10;99.90;;;;;;5052200;28;20028;-70
2022/05/02 05:02:49;;;;;;;16.05;9.75;;;8.20;99.90;;;;;;5054205;28;20029;-70
2022/05/02 05:05:16;;;;;;;14.73;9.52;;;8.30;99.90;;;;;;5053677;28;20108;-71
2022/05/02 05:07:43;;;;;;;15.55;10.20;;;8.30;99.90;;;;;;5052752;28;20430;-70
2022/05/02 05:10:09;;;;;;;15.70;9.02;;;8.30;99.90;;;;;;5052655;28;20013;-71
2022/05/02 05:12:53;;;;;;;15.25;10.07;;;8.40;99.90;;;;;;5054487;28;20390;-71
2022/05/02 05:18:32;;;;;;;12.95;8.70;;;8.60;99.90;;;;;;5054957;28;20036;-70
2022/05/02 05:21:11;;;;;;;17.38;9.80;;;8.70;99.90;;;;;;5052666;28;20110;-71
2022/05/02 05:24:25;;;;;;;17.95;9.38;;;8.60;99.90;;;;;;5054054;28;20021;-71
2022/05/02 05:27:12;;;;;;;14.27;8.65;;;8.60;99.90;;;;;;5042443;28;20055;-71
2022/05/02 05:29:44;;;;;;;13.25;8.70;;;8.80;99.90;;;;;;5049709;28;20028;-71
2022/05/02 05:32:35;;;;;;;19.73;10.13;;;8.90;99.90;;;;;;5056028;28;20078;-71
2022/05/02 05:35:07;;;;;;;20.67;9.90;;;8.90;99.90;;;;;;5071869;28;20036;-71
2022/05/02 05:38:01;;;;;;;16.95;9.32;;;8.90;99.90;;;;;;5049683;28;20071;-71
2022/05/02 05:40:39;;;;;;;14.93;8.48;;;8.90;99.90;;;;;;5062101;28;20430;-71
2022/05/02 05:43:21;;;;;;;20.40;9.63;;;9.10;99.90;;;;;;5063208;28;20021;-71
2022/05/02 05:45:56;;;;;;;13.60;8.95;;;9.20;99.90;;;;;;5059357;28;20033;-73
2022/05/02 05:48:49;;;;;;;16.27;8.95;;;9.30;99.90;;;;;;5040108;28;20029;-71
2022/05/02 05:51:37;;;;;;;14.05;9.85;;;9.40;99.90;;;;;;5063043;28;20028;-70
2022/05/02 05:54:09;;;;;;;12.98;8.68;;;9.60;99.90;;;;;;5070260;28;20029;-71
2022/05/02 05:56:53;;;;;;;15.18;8.98;;;9.70;99.90;;;;;;5059224;28;20075;-72
2022/05/02 05:59:28;;;;;;;14.73;8.95;;;9.80;99.90;;;;;;5057306;28;20577;-72
2022/05/02 06:01:56;;;;;;;16.23;9.70;;;9.90;99.90;;;;;;5057468;28;20021;-72
2022/05/02 06:04:27;;;;;;;13.43;9.80;;;10.00;99.90;;;;;;5039161;28;20033;-71
2022/05/02 06:06:54;;;;;;;15.38;9.93;;;10.00;99.90;;;;;;5057318;28;20021;-72
2022/05/02 06:09:22;;;;;;;21.77;10.10;;;10.10;99.90;;;;;;5056958;28;20025;-71
2022/05/02 06:11:50;;;;;;;18.75;10.10;;;10.00;99.90;;;;;;5057061;28;20096;-71
2022/05/02 06:14:21;;;;;;;14.82;9.63;;;10.00;99.90;;;;;;5057145;28;20017;-71
2022/05/02 06:19:33;;;;;;;14.20;10.10;;;10.20;99.90;;;;;;5056896;28;20059;-71
2022/05/02 06:22:03;;;;;;;18.88;10.10;;;10.30;99.90;;;;;;5057021;28;20029;-71
2022/05/02 06:24:32;;;;;;;18.80;9.95;;;10.30;99.90;;;;;;5056846;28;20029;-71
2022/05/02 06:27:00;;;;;;;20.10;10.35;;;10.30;99.90;;;;;;5038648;28;20021;-71
2022/05/02 06:29:27;;;;;;;16.52;11.13;;;10.50;99.90;;;;;;5056545;28;20017;-71
2022/05/02 06:31:55;;;;;;;13.60;9.57;;;10.50;99.90;;;;;;5056380;28;20021;-72
2022/05/02 06:34:27;;;;;;;16.83;9.18;;;10.60;99.90;;;;;;5056508;28;20111;-72
2022/05/02 06:37:05;;;;;;;16.60;10.02;;;10.60;99.90;;;;;;5058842;28;20025;-71
2022/05/02 06:39:51;;;;;;;17.58;10.00;;;10.70;99.90;;;;;;5063389;28;20056;-69
2022/05/02 06:42:39;;;;;;;14.63;9.70;;;10.70;99.90;;;;;;5061993;28;20033;-71
2022/05/02 06:45:32;;;;;;;18.80;9.52;;;10.70;99.90;;;;;;5055865;28;20104;-72
2022/05/02 06:48:55;;;;;;;16.33;9.73;;;10.60;99.90;;;;;;5055830;28;20017;-71
2022/05/02 06:51:27;;;;;;;15.55;9.93;;;10.60;99.90;;;;;;4994422;28;20088;-73
2022/05/02 06:54:12;;;;;;;13.85;9.60;;;10.80;99.90;;;;;;5046278;28;20044;-73
2022/05/02 06:56:42;;;;;;;17.48;9.48;;;10.90;99.90;;;;;;5056095;28;20475;-73
2022/05/02 06:59:20;;;;;;;15.95;9.80;;;11.00;99.90;;;;;;5038160;28;20053;-72
2022/05/02 07:01:57;;;;;;;15.13;9.35;;;11.10;99.90;;;;;;5055424;28;20021;-72
2022/05/02 07:04:35;;;;;;;14.35;9.77;;;11.10;99.90;;;;;;5055253;28;20078;-72
2022/05/02 07:07:15;;;;;;;14.77;10.15;;;11.20;99.90;;;;;;5055268;28;20104;-73
2022/05/02 07:09:52;;;;;;;19.03;9.77;;;11.30;99.90;;;;;;5055167;28;20025;-74
2022/05/02 07:12:27;;;;;;;14.40;9.30;;;11.30;99.90;;;;;;5037700;28;20473;-73
2022/05/02 07:15:05;;;;;;;13.77;9.25;;;11.40;99.90;;;;;;5055433;28;20024;-72
2022/05/02 07:17:42;;;;;;;15.80;9.48;;;11.50;99.90;;;;;;5037353;28;20032;-72
2022/05/02 07:20:28;;;;;;;18.77;9.82;;;11.60;99.90;;;;;;5055372;28;20029;-72
2022/05/02 07:23:19;;;;;;;12.98;9.27;;;11.80;99.90;;;;;;5067711;28;20021;-72
2022/05/02 07:25:50;;;;;;;13.87;9.03;;;11.90;99.90;;;;;;5064043;28;20025;-72
2022/05/02 07:28:16;;;;;;;;;;;12.10;99.90;;;;;;5055529;28;20287;-72
2022/05/02 07:30:42;;;;;;;16.77;9.98;;;12.20;99.90;;;;;;5055008;28;20362;-72
2022/05/02 07:33:10;;;;;;;17.90;10.38;;;12.20;99.90;;;;;;5051713;28;20402;-72
2022/05/02 07:35:37;;;;;;;17.17;11.02;;;12.30;99.90;;;;;;5054977;28;20017;-72
2022/05/02 07:38:04;;;;;;;16.10;9.65;;;12.30;99.90;;;;;;5054955;28;20412;-72
2022/05/02 07:40:30;;;;;;;13.55;9.93;;;12.40;99.90;;;;;;5054660;28;20025;-73
2022/05/02 07:42:58;;;;;;;16.15;9.40;;;12.50;99.90;;;;;;5054773;28;20124;-72
2022/05/02 07:45:29;;;;;;;16.58;9.45;;;12.60;99.90;;;;;;5054766;28;20458;-72
2022/05/02 07:47:58;;;;;;;13.52;9.27;;;12.70;99.90;;;;;;5054384;28;20025;-72
2022/05/02 07:50:26;;;;;;;15.02;10.02;;;12.80;99.90;;;;;;5054403;28;20028;-72
2022/05/02 07:52:52;;;;;;;13.80;9.38;;;12.80;99.90;;;;;;5036242;28;20017;-72
2022/05/02 07:55:21;;;;;;;17.45;10.40;;;12.70;99.90;;;;;;5035710;28;20025;-72
2022/05/02 07:57:48;;;;;;;20.60;10.07;;;12.70;99.90;;;;;;5104764;22;20063;-76
2022/05/02 08:00:14;;;;;;;14.40;10.45;;;12.80;99.90;;;;;;5064807;28;20016;-77
2022/05/02 08:02:41;;;;;;;14.77;9.57;;;12.90;99.90;;;;;;5064288;28;20020;-77
2022/05/02 08:05:07;;;;;;;13.15;8.65;;;13.00;99.90;;;;;;5063873;28;20032;-77
2022/05/02 08:07:44;;;;;;;14.73;8.40;;;13.10;99.90;;;;;;5068997;28;20021;-77
2022/05/02 08:10:34;;;;;;;15.52;9.18;;;13.00;99.90;;;;;;5046008;28;20025;-77
2022/05/02 08:13:27;;;;;;;17.15;9.95;;;13.00;99.90;;;;;;5069795;28;20021;-76
2022/05/02 08:16:10;;;;;;;13.52;8.77;;;13.10;99.90;;;;;;5061902;28;20040;-76
2022/05/02 08:18:50;;;;;;;13.20;8.93;;;13.20;99.90;;;;;;5062114;28;20047;-76
2022/05/02 08:21:22;;;;;;;13.43;9.32;;;13.30;99.90;;;;;;5043899;28;20519;-76
2022/05/02 08:27:38;;;;;;;16.45;10.20;;;13.50;99.90;;;;;;5059747;28;20079;-76
2022/05/02 08:30:15;;;;;;;12.43;8.48;;;13.60;99.90;;;;;;5041627;28;20393;-76
2022/05/02 08:32:48;;;;;;;11.70;6.80;;;13.70;99.90;;;;;;5059856;28;20025;-77
2022/05/02 08:35:16;;;;;;;11.68;7.55;;;13.70;99.90;;;;;;5062669;28;20025;-77
2022/05/02 08:38:10;;;;;;;10.82;6.55;;;13.80;99.90;;;;;;5062858;28;20488;-77
2022/05/02 08:41:10;;;;;;;9.90;6.72;;;13.90;99.90;;;;;;5043417;28;20032;-77
2022/05/02 08:43:44;;;;;;;13.05;8.73;;;14.10;99.90;;;;;;5044842;28;20033;-77
2022/05/02 08:46:21;;;;;;;12.63;7.13;;;14.10;99.90;;;;;;5043999;28;20024;-77
2022/05/02 08:52:28;;;;;;;10.57;6.93;;;14.50;99.90;;;;;;5049359;28;20052;-77
2022/05/02 08:54:57;;;;;;;10.82;6.82;;;14.60;99.90;;;;;;5050284;28;20032;-77
2022/05/02 08:58:00;;;;;;;10.27;6.85;;;14.70;99.90;;;;;;5060912;28;20025;-77
2022/05/02 09:00:51;;;;;;;14.38;7.68;;;14.60;99.90;;;;;;5056697;28;20394;-77
2022/05/02 09:03:55;;;;;;;10.95;7.10;;;14.60;99.90;;;;;;5021375;28;20021;-77
2022/05/02 09:06:42;;;;;;;14.65;6.53;;;14.80;99.90;;;;;;5022070;28;20088;-77
2022/05/02 09:09:31;;;;;;;12.15;7.20;;;14.90;99.90;;;;;;5038595;28;20085;-77
2022/05/02 09:12:03;;;;;;;11.68;7.30;;;15.10;99.90;;;;;;5062761;28;20033;-77
2022/05/02 09:14:34;;;;;;;11.43;7.80;;;15.20;99.90;;;;;;5047335;28;20439;-77
2022/05/02 09:17:19;;;;;;;10.70;7.28;;;15.30;99.90;;;;;;5059115;28;20077;-75
2022/05/02 09:20:22;;;;;;;9.68;6.97;;;15.40;99.90;;;;;;5030445;28;20097;-75
2022/05/02 09:22:59;;;;;;;12.50;8.02;;;15.50;99.90;;;;;;5038183;28;20018;-75
2022/05/02 09:25:41;;;;;;;14.98;7.63;;;15.40;99.90;;;;;;5045231;28;20026;-75
2022/05/02 09:28:36;;;;;;;9.48;6.95;;;15.20;99.90;;;;;;5045238;28;20109;-75
2022/05/02 09:31:23;;;;;;;11.40;7.75;;;15.20;99.90;;;;;;5044510;28;20029;-75
2022/05/02 09:34:12;;;;;;;13.15;7.60;;;15.40;99.90;;;;;;5056940;28;20029;-75
2022/05/02 09:36:53;;;;;;;13.40;8.43;;;15.70;99.90;;;;;;5056807;28;20064;-75
2022/05/02 09:39:36;;;;;;;10.25;7.13;;;15.60;99.90;;;;;;5057392;28;20021;-75
2022/05/02 09:42:19;;;;;;;12.55;7.63;;;15.70;99.90;;;;;;5057361;28;20029;-76
2022/05/02 09:51:48;;;;;;;11.63;7.28;;;15.80;99.90;;;;;;5058475;28;20112;-75
2022/05/02 09:57:18;;;;;;;8.43;6.47;;;15.80;99.90;;;;;;5056930;28;20091;-75
2022/05/02 10:02:48;;;;;;;14.27;8.25;;;15.80;99.90;;;;;;4984495;28;20029;-75
2022/05/02 10:05:54;;;;;;;11.50;7.30;;;15.80;99.90;;;;;;5045858;28;20494;-75
2022/05/02 10:08:53;;;;;;;13.52;8.00;;;15.90;99.90;;;;;;4939753;29;20501;-75
2022/05/02 10:11:52;;;;;;;11.65;7.43;;;15.90;99.90;;;;;;4940065;29;20063;-75
2022/05/02 10:14:50;;;;;;;12.93;7.03;;;16.00;99.90;;;;;;5031196;28;20052;-75
2022/05/02 10:17:24;;;;;;;12.30;7.72;;;16.10;99.90;;;;;;5037269;28;20468;-75
2022/05/02 10:20:05;;;;;;;10.05;7.22;;;16.20;99.90;;;;;;5039651;28;20415;-75
2022/05/02 10:22:49;;;;;;;12.98;7.72;;;16.30;99.70;;;;;;5023800;28;20033;-75
2022/05/02 10:25:22;;;;;;;11.15;6.88;;;16.30;99.40;;;;;;5047521;28;20025;-74
2022/05/02 10:28:05;;;;;;;11.32;7.22;;;16.20;99.80;;;;;;5041979;28;20025;-74
2022/05/02 10:30:53;;;;;;;11.55;7.65;;;16.30;99.40;;;;;;5051930;28;20044;-74
2022/05/02 10:33:30;;;;;;;10.35;6.97;;;16.30;99.10;;;;;;5017505;28;20033;-73
2022/05/02 10:36:00;;;;;;;9.07;7.10;;;16.20;98.80;;;;;;5046152;28;20036;-73
2022/05/02 10:38:29;;;;;;;10.73;7.50;;;16.10;98.60;;;;;;5068707;28;20047;-73
2022/05/02 10:41:16;;;;;;;10.27;7.18;;;16.10;99.00;;;;;;5050844;28;20029;-74
2022/05/02 10:43:49;;;;;;;12.05;7.10;;;16.10;99.00;;;;;;5026858;28;20020;-74
2022/05/02 10:46:16;;;;;;;11.25;6.82;;;16.30;98.70;;;;;;5043214;28;20440;-74
2022/05/02 10:48:51;;;;;;;11.40;7.25;;;16.40;98.20;;;;;;5061087;28;20065;-74
2022/05/02 10:51:32;;;;;;;12.52;8.05;;;16.40;97.80;;;;;;5053220;28;20041;-73
2022/05/02 10:54:07;;;;;;;10.73;7.15;;;16.30;98.00;;;;;;5047564;28;20098;-74
2022/05/02 10:56:42;;;;;;;12.70;7.50;;;16.30;98.00;;;;;;5055517;28;20040;-74
2022/05/02 10:59:10;;;;;;;9.63;7.38;;;16.40;97.90;;;;;;5047020;28;20025;-73
2022/05/02 11:02:02;;;;;;;9.63;6.88;;;16.50;97.40;;;;;;5045639;28;20029;-73
2022/05/02 11:04:36;;;;;;;15.70;7.82;;;16.60;98.00;;;;;;5035634;28;20028;-74
2022/05/02 11:07:18;;;;;;;13.35;8.32;;;16.70;97.40;;;;;;5062261;28;20039;-74
2022/05/02 11:09:56;;;;;;;13.13;7.65;;;16.70;97.10;;;;;;5057835;28;20026;-74
2022/05/02 11:12:24;;;;;;;10.90;8.15;;;16.60;96.80;;;;;;5063349;28;20060;-73
2022/05/02 11:15:27;;;;;;;12.20;8.23;;;16.50;96.80;;;;;;5041469;28;20033;-74
2022/05/02 11:20:41;;;;;;;12.07;7.32;;;16.50;96.80;;;;;;5027263;28;20037;-74
2022/05/02 11:21:22;;;;;;;11.45;7.30;;;16.60;97.20;;;;;;5065489;28;20025;-75
2022/05/02 11:24:26;;;;;;;14.02;7.63;;;16.70;97.20;;;;;;5064198;28;20021;-75
2022/05/02 11:27:26;;;;;;;12.40;7.28;;;16.90;96.70;;;;;;5057225;28;20067;-74
2022/05/02 11:30:01;;;;;;;10.50;7.22;;;17.10;96.40;;;;;;5039273;28;20048;-74
2022/05/02 11:32:29;;;;;;;9.10;7.45;;;17.20;96.10;;;;;;5040948;28;20029;-74
2022/05/02 11:34:55;;;;;;;10.57;7.53;;;17.20;95.10;;;;;;5058543;28;20517;-74
2022/05/02 11:37:51;;;;;;;17.17;7.78;;;17.30;95.40;;;;;;5042421;28;20029;-74
2022/05/02 11:40:18;;;;;;;10.52;7.20;;;17.40;95.40;;;;;;5059122;28;20013;-73
2022/05/02 11:42:47;;;;;;;12.43;8.07;;;17.50;95.00;;;;;;5057134;28;20540;-74
2022/05/02 11:45:17;;;;;;;15.10;8.10;;;17.50;94.70;;;;;;5031417;28;20121;-74
2022/05/02 11:47:45;;;;;;;11.40;7.45;;;17.60;94.60;;;;;;5058539;28;20048;-74
2022/05/02 11:50:12;;;;;;;11.35;6.93;;;17.70;94.00;;;;;;5067959;28;20040;-74
2022/05/02 11:52:38;;;;;;;13.23;8.10;;;17.70;93.70;;;;;;5057779;28;20032;-73
2022/05/02 11:55:06;;;;;;;8.68;7.13;;;17.80;93.50;;;;;;5040817;28;20024;-74
2022/05/02 11:57:36;;;;;;;12.75;8.50;;;17.70;93.60;;;;;;5051832;28;20118;-74
2022/05/02 12:00:07;;;;;;;13.63;8.48;;;17.70;93.60;;;;;;5041357;28;20101;-75
2022/05/02 12:02:48;;;;;;;11.40;7.45;;;17.80;93.50;;;;;;5039196;28;20028;-75
2022/05/02 12:05:31;;;;;;;11.63;7.60;;;18.00;92.90;;;;;;5057997;28;20032;-75
2022/05/02 12:08:06;;;;;;;11.40;7.60;;;18.00;92.60;;;;;;5057199;28;20127;-75
2022/05/02 12:10:37;;;;;;;13.18;7.47;;;17.70;92.30;;;;;;5054724;28;20029;-74
2022/05/02 12:13:14;;;;;;;11.88;7.53;;;17.60;92.80;;;;;;5056649;28;20036;-74
2022/05/02 12:16:19;;;;;;;13.70;8.02;;;17.50;92.90;;;;;;5039155;28;20032;-74
2022/05/02 12:18:55;;;;;;;14.88;7.15;;;17.50;93.00;;;;;;4956791;29;20027;-74
2022/05/02 12:21:38;;;;;;;11.90;7.88;;;17.70;93.20;;;;;;4957254;29;20030;-74
2022/05/02 12:24:05;;;;;;;16.20;8.55;;;17.70;92.60;;;;;;5023272;28;20041;-74
2022/05/02 12:26:44;;;;;;;10.60;7.13;;;17.60;92.40;;;;;;5057342;28;20465;-75
2022/05/02 12:29:15;;;;;;;14.30;7.75;;;17.70;92.80;;;;;;5057225;28;20168;-73
2022/05/02 12:31:42;;;;;;;13.45;7.95;;;17.80;92.50;;;;;;5057748;28;20108;-73
2022/05/02 12:34:10;;;;;;;11.82;7.70;;;17.70;92.80;;;;;;5058847;28;20044;-73
2022/05/02 12:36:45;;;;;;;10.10;7.35;;;17.80;92.40;;;;;;5057794;28;20055;-73
2022/05/02 12:39:13;;;;;;;11.63;6.90;;;17.80;93.00;;;;;;5057758;28;20478;-74
2022/05/02 12:41:43;;;;;;;12.35;7.93;;;17.90;92.80;;;;;;5038868;28;20039;-76
2022/05/02 12:44:13;;;;;;;10.00;7.32;;;18.00;92.60;;;;;;5060515;28;20084;-75
2022/05/02 12:46:43;;;;;;;13.98;8.50;;;17.90;92.60;;;;;;5072778;28;20123;-76
2022/05/02 12:49:21;;;;;;;17.50;8.30;;;17.90;92.50;;;;;;5060262;28;20021;-75
2022/05/02 12:51:55;;;;;;;11.38;7.72;;;17.90;92.60;;;;;;5038721;28;20032;-75
2022/05/02 12:54:23;;;;;;;11.45;8.15;;;17.70;92.80;;;;;;5039759;28;20025;-76
2022/05/02 13:02:39;;;;;;;13.85;7.63;;;17.70;92.80;;;;;;5044880;28;20387;-75
2022/05/02 13:05:11;;;;;;;12.45;6.88;;;17.70;93.00;;;;;;5044068;28;20021;-76
2022/05/02 13:07:44;;;;;;;12.00;8.25;;;17.60;93.20;;;;;;5038035;28;20017;-76
2022/05/02 13:10:24;;;;;;;11.00;7.85;;;17.60;93.40;;;;;;5038927;28;20033;-75
2022/05/02 13:12:58;;;;;;;14.82;8.68;;;17.70;93.10;;;;;;5040233;28;20044;-75
2022/05/02 13:15:45;;;;;;;10.93;8.35;;;17.70;92.90;;;;;;5040331;28;20030;-75
2022/05/02 13:18:14;;;;;;;13.13;7.72;;;17.50;93.20;;;;;;5037044;28;20133;-75
2022/05/02 13:20:44;;;;;;;13.13;8.48;;;17.60;93.20;;;;;;5037661;28;20025;-75
2022/05/02 13:23:13;;;;;;;11.82;7.90;;;17.70;92.80;;;;;;5038203;28;20022;-75
2022/05/02 13:26:06;;;;;;;13.77;7.35;;;17.60;93.00;;;;;;5044499;28;20061;-76
2022/05/02 13:28:58;;;;;;;12.65;7.78;;;17.80;93.10;;;;;;5058649;28;20059;-75
2022/05/02 13:31:32;;;;;;;10.75;7.60;;;17.80;92.40;;;;;;5035509;28;20037;-75
2022/05/02 13:34:02;;;;;;;13.93;8.95;;;17.70;92.80;;;;;;5061070;28;20049;-75
2022/05/02 13:36:39;;;;;;;10.63;7.30;;;17.70;93.00;;;;;;5042703;28;20312;-75
2022/05/02 13:39:15;;;;;;;11.80;7.47;;;17.60;93.60;;;;;;5057550;28;20068;-76
2022/05/02 13:41:58;;;;;;;14.93;7.68;;;17.80;93.20;;;;;;5036959;28;20109;-75
2022/05/02 13:44:52;;;;;;;12.43;6.40;;;17.80;93.40;;;;;;5037135;28;20018;-75
2022/05/02 13:47:21;;;;;;;11.38;7.15;;;18.00;93.60;;;;;;5029649;28;20025;-75
2022/05/02 13:50:11;;;;;;;12.90;7.30;;;18.00;93.20;;;;;;5038225;28;20029;-76